createdAt,value
2019-02-24T00:00:51.620Z,27.17
2019-02-24T00:03:18.844Z,20.97
2019-02-24T00:05:46.067Z,14.03
2019-02-24T00:08:13.319Z,14.07
2019-02-24T00:10:40.536Z,14.67
2019-02-24T00:13:08.072Z,13.50
2019-02-24T00:15:35.285Z,14.03
2019-02-24T00:18:02.776Z,14.27
2019-02-24T00:20:30.356Z,14.73
2019-02-24T00:22:57.895Z,13.47
2019-02-24T00:25:25.132Z,16.17
2019-02-24T00:27:52.367Z,14.13
2019-02-24T00:30:19.603Z,14.50
2019-02-24T00:32:46.815Z,16.60
2019-02-24T00:35:14.355Z,14.03
2019-02-24T00:37:41.916Z,13.63
2019-02-24T00:40:09.475Z,13.40
2019-02-24T00:42:37.036Z,13.80
2019-02-24T00:45:04.592Z,12.60
2019-02-24T00:47:31.839Z,15.83
2019-02-24T00:49:59.409Z,12.53
2019-02-24T00:52:26.647Z,11.73
2019-02-24T00:54:53.864Z,13.90
2019-02-24T00:57:21.363Z,13.30
2019-02-24T00:59:48.593Z,12.53
2019-02-24T01:02:16.171Z,11.03
2019-02-24T01:04:43.402Z,17.23
2019-02-24T01:07:10.725Z,11.77
2019-02-24T01:09:38.145Z,10.90
2019-02-24T01:12:05.696Z,11.43
2019-02-24T01:14:33.259Z,10.87
2019-02-24T01:17:01.101Z,11.07
2019-02-24T01:19:28.679Z,11.33
2019-02-24T01:21:55.930Z,9.43
2019-02-24T01:24:23.487Z,10.97
2019-02-24T01:26:50.764Z,12.20
2019-02-24T01:29:18.299Z,9.57
2019-02-24T01:31:45.858Z,10.70
2019-02-24T01:34:13.081Z,7.63
2019-02-24T01:36:40.298Z,10.43
2019-02-24T01:39:07.820Z,9.57
2019-02-24T01:41:35.080Z,9.27
2019-02-24T01:44:02.634Z,10.00
2019-02-24T01:46:30.188Z,8.13
2019-02-24T01:48:57.755Z,9.60
2019-02-24T01:51:25.308Z,8.37
2019-02-24T01:53:52.868Z,9.57
2019-02-24T01:56:20.083Z,9.17
2019-02-24T01:58:47.325Z,8.03
2019-02-24T02:01:14.543Z,9.27
2019-02-24T02:03:41.779Z,10.13
2019-02-24T02:06:08.999Z,9.43
2019-02-24T02:08:36.241Z,8.17
2019-02-24T02:11:03.460Z,10.53
2019-02-24T02:13:30.989Z,9.63
2019-02-24T02:15:58.197Z,8.90
2019-02-24T02:18:25.432Z,8.63
2019-02-24T02:20:52.648Z,10.00
2019-02-24T02:23:19.890Z,10.17
2019-02-24T02:25:47.113Z,9.83
2019-02-24T02:28:14.358Z,8.93
2019-02-24T02:30:41.572Z,10.33
2019-02-24T02:33:09.096Z,8.47
2019-02-24T02:35:36.311Z,7.27
2019-02-24T02:38:03.916Z,9.90
2019-02-24T02:40:31.144Z,9.67
2019-02-24T02:42:58.500Z,8.13
2019-02-24T02:45:26.078Z,11.87
2019-02-24T02:47:53.319Z,10.90
2019-02-24T02:50:21.044Z,9.63
2019-02-24T02:52:48.289Z,10.80
2019-02-24T02:55:15.499Z,9.30
2019-02-24T02:57:42.730Z,10.07
2019-02-24T03:00:26.346Z,11.37
2019-02-24T03:02:54.039Z,16.93
2019-02-24T03:05:21.280Z,12.07
2019-02-24T03:07:54.664Z,12.27
2019-02-24T03:10:21.899Z,11.40
2019-02-24T03:12:49.123Z,11.20
2019-02-24T03:15:16.648Z,11.93
2019-02-24T03:17:43.892Z,14.67
2019-02-24T03:20:11.456Z,9.80
2019-02-24T03:22:38.695Z,11.60
2019-02-24T03:25:05.928Z,10.47
2019-02-24T03:27:33.150Z,11.83
2019-02-24T03:30:00.456Z,12.57
2019-02-24T03:32:28.025Z,10.00
2019-02-24T03:34:55.373Z,12.87
2019-02-24T03:37:22.758Z,11.50
2019-02-24T03:39:50.004Z,10.97
2019-02-24T03:42:17.220Z,10.80
2019-02-24T03:44:44.516Z,10.43
2019-02-24T03:47:11.826Z,11.33
2019-02-24T03:49:39.085Z,10.33
2019-02-24T03:52:06.652Z,10.37
2019-02-24T03:54:33.894Z,10.17
2019-02-24T03:57:01.115Z,10.17
2019-02-24T03:59:28.615Z,10.90
2019-02-24T04:01:55.823Z,10.37
2019-02-24T04:04:23.069Z,10.63
2019-02-24T04:06:50.285Z,8.40
2019-02-24T04:09:17.532Z,12.13
2019-02-24T04:11:44.776Z,10.00
2019-02-24T04:14:12.042Z,10.63
2019-02-24T04:16:39.586Z,9.83
2019-02-24T04:19:06.936Z,10.87
2019-02-24T04:21:34.175Z,13.13
2019-02-24T04:24:01.458Z,12.00
2019-02-24T04:26:28.999Z,10.63
2019-02-24T04:28:56.240Z,10.33
2019-02-24T04:31:23.505Z,9.17
2019-02-24T04:33:50.719Z,9.23
2019-02-24T04:36:17.939Z,11.07
2019-02-24T04:38:45.179Z,9.23
2019-02-24T04:41:12.395Z,10.43
2019-02-24T04:43:39.609Z,10.03
2019-02-24T04:46:07.112Z,8.97
2019-02-24T04:48:34.332Z,9.40
2019-02-24T04:51:01.556Z,11.47
2019-02-24T04:53:28.772Z,8.73
2019-02-24T04:55:55.996Z,8.60
2019-02-24T04:58:23.215Z,10.27
2019-02-24T05:00:50.748Z,12.03
2019-02-24T05:03:17.968Z,9.97
2019-02-24T05:05:45.184Z,10.03
2019-02-24T05:08:12.580Z,8.60
2019-02-24T05:10:40.155Z,9.13
2019-02-24T05:13:07.372Z,8.47
2019-02-24T05:15:34.619Z,10.03
2019-02-24T05:18:01.875Z,11.50
2019-02-24T05:20:29.761Z,11.87
2019-02-24T05:22:57.004Z,9.20
2019-02-24T05:25:24.254Z,13.50
2019-02-24T05:27:51.507Z,11.63
2019-02-24T05:30:20.014Z,9.27
2019-02-24T05:32:47.260Z,10.87
2019-02-24T05:35:14.517Z,10.83
2019-02-24T05:37:41.771Z,11.57
2019-02-24T05:40:08.998Z,10.27
2019-02-24T05:42:36.251Z,8.87
2019-02-24T05:45:03.924Z,11.67
2019-02-24T05:47:31.187Z,11.73
2019-02-24T05:49:58.403Z,11.03
2019-02-24T05:52:25.627Z,10.87
2019-02-24T05:54:52.872Z,8.93
2019-02-24T05:57:20.379Z,13.20
2019-02-24T05:59:54.970Z,10.80
2019-02-24T06:02:17.852Z,11.17
2019-02-24T06:04:46.138Z,9.77
2019-02-24T06:07:14.433Z,10.57
2019-02-24T06:09:42.929Z,10.63
2019-02-24T06:12:10.325Z,10.07
2019-02-24T06:14:37.904Z,12.37
2019-02-24T06:17:05.133Z,10.00
2019-02-24T06:19:32.353Z,10.57
2019-02-24T06:21:59.747Z,10.73
2019-02-24T06:24:28.153Z,10.77
2019-02-24T06:26:56.219Z,9.50
2019-02-24T06:29:23.524Z,11.47
2019-02-24T06:31:50.755Z,10.77
2019-02-24T06:34:18.276Z,12.00
2019-02-24T06:36:46.817Z,13.50
2019-02-24T06:39:17.334Z,12.57
2019-02-24T06:41:45.672Z,13.33
2019-02-24T06:44:13.341Z,16.10
2019-02-24T06:46:40.982Z,10.57
2019-02-24T06:49:08.545Z,11.17
2019-02-24T06:51:36.097Z,13.37
2019-02-24T06:54:03.343Z,13.53
2019-02-24T06:56:30.591Z,12.47
2019-02-24T06:58:58.180Z,13.43
2019-02-24T07:01:25.429Z,12.77
2019-02-24T07:03:54.497Z,13.87
2019-02-24T07:06:21.791Z,13.77
2019-02-24T07:08:49.018Z,13.67
2019-02-24T07:11:16.573Z,14.63
2019-02-24T07:13:44.033Z,14.43
2019-02-24T07:16:11.308Z,14.63
2019-02-24T07:18:38.839Z,13.97
2019-02-24T07:21:06.417Z,11.30
2019-02-24T07:23:33.653Z,12.80
2019-02-24T07:26:00.867Z,14.33
2019-02-24T07:28:28.088Z,15.07
2019-02-24T07:30:55.607Z,14.20
2019-02-24T07:33:23.168Z,14.43
2019-02-24T07:35:50.385Z,13.63
2019-02-24T07:38:17.873Z,13.30
2019-02-24T07:40:45.094Z,13.10
2019-02-24T07:43:12.307Z,13.90
2019-02-24T07:45:39.523Z,10.70
2019-02-24T07:48:06.748Z,12.93
2019-02-24T07:50:33.999Z,10.40
2019-02-24T07:53:01.207Z,13.83
2019-02-24T07:55:28.942Z,11.47
2019-02-24T07:57:56.510Z,10.47
2019-02-24T08:00:31.705Z,11.43
2019-02-24T08:02:52.856Z,10.77
2019-02-24T08:05:20.071Z,11.40
2019-02-24T08:07:47.319Z,10.53
2019-02-24T08:10:14.539Z,11.63
2019-02-24T08:12:41.783Z,11.13
2019-02-24T08:15:09.316Z,11.00
2019-02-24T08:17:37.081Z,10.17
2019-02-24T08:20:05.408Z,8.63
2019-02-24T08:22:32.912Z,12.03
2019-02-24T08:25:00.475Z,11.03
2019-02-24T08:27:27.721Z,10.20
2019-02-24T08:29:55.281Z,11.10
2019-02-24T08:32:22.647Z,8.53
2019-02-24T08:34:50.196Z,9.43
2019-02-24T08:37:17.425Z,8.73
2019-02-24T08:39:44.639Z,9.23
2019-02-24T08:42:11.883Z,9.87
2019-02-24T08:44:39.423Z,9.40
2019-02-24T08:47:06.744Z,6.90
2019-02-24T08:49:34.002Z,8.27
2019-02-24T08:52:01.325Z,6.87
2019-02-24T08:54:28.553Z,7.83
2019-02-24T08:56:55.798Z,8.90
2019-02-24T08:59:23.351Z,9.57
2019-02-24T09:01:50.583Z,8.17
2019-02-24T09:04:17.821Z,7.50
2019-02-24T09:06:45.700Z,6.73
2019-02-24T09:09:12.932Z,6.17
2019-02-24T09:11:40.168Z,6.70
2019-02-24T09:14:07.488Z,6.53
2019-02-24T09:16:35.011Z,6.23
2019-02-24T09:19:02.677Z,5.17
2019-02-24T09:21:30.250Z,5.23
2019-02-24T09:23:57.608Z,6.13
2019-02-24T09:26:24.839Z,6.10
2019-02-24T09:28:52.084Z,5.23
2019-02-24T09:31:19.652Z,6.50
2019-02-24T09:33:46.887Z,6.13
2019-02-24T09:36:14.564Z,6.33
2019-02-24T09:38:41.815Z,6.23
2019-02-24T09:41:09.060Z,6.03
2019-02-24T09:43:36.303Z,5.47
2019-02-24T09:46:05.003Z,6.27
2019-02-24T09:48:32.245Z,7.93
2019-02-24T09:50:59.494Z,5.67
2019-02-24T09:53:27.072Z,7.13
2019-02-24T09:55:54.303Z,7.07
2019-02-24T09:58:21.595Z,5.07
2019-02-24T10:00:49.132Z,5.20
2019-02-24T10:03:16.689Z,4.13
2019-02-24T10:05:44.243Z,4.47
2019-02-24T10:08:11.817Z,4.93
2019-02-24T10:10:39.068Z,5.23
2019-02-24T10:13:06.617Z,5.60
2019-02-24T10:15:33.849Z,5.27
2019-02-24T10:18:01.632Z,4.47
2019-02-24T10:20:28.869Z,4.40
2019-02-24T10:22:56.103Z,4.33
2019-02-24T10:25:23.428Z,5.20
2019-02-24T10:27:50.688Z,5.27
2019-02-24T10:30:18.200Z,4.17
2019-02-24T10:32:45.432Z,4.63
2019-02-24T10:35:13.008Z,4.83
2019-02-24T10:37:40.236Z,7.00
2019-02-24T10:40:09.497Z,5.90
2019-02-24T10:42:36.717Z,5.43
2019-02-24T10:45:04.735Z,4.60
2019-02-24T10:47:33.784Z,5.37
2019-02-24T10:50:01.352Z,4.73
2019-02-24T10:52:30.639Z,4.97
2019-02-24T10:54:58.395Z,6.07
2019-02-24T10:57:25.676Z,4.40
2019-02-24T10:59:53.207Z,4.87
2019-02-24T11:02:20.775Z,5.40
2019-02-24T11:04:48.958Z,5.63
2019-02-24T11:07:16.813Z,5.37
2019-02-24T11:09:44.148Z,3.90
2019-02-24T11:12:11.740Z,6.33
2019-02-24T11:14:39.275Z,4.53
2019-02-24T11:17:06.836Z,4.17
2019-02-24T11:19:34.398Z,4.20
2019-02-24T11:22:01.644Z,4.03
2019-02-24T11:24:29.217Z,4.33
2019-02-24T11:26:56.875Z,4.53
2019-02-24T11:29:24.430Z,3.87
2019-02-24T11:31:51.983Z,3.10
2019-02-24T11:34:19.554Z,4.80
2019-02-24T11:36:47.104Z,5.07
2019-02-24T11:39:14.660Z,2.93
2019-02-24T11:41:41.892Z,3.30
2019-02-24T11:44:09.155Z,4.37
2019-02-24T11:46:36.411Z,3.57
2019-02-24T11:49:03.664Z,3.57
2019-02-24T11:51:31.228Z,3.57
2019-02-24T11:53:58.784Z,4.77
2019-02-24T11:56:26.349Z,4.23
2019-02-24T11:58:53.904Z,3.43
2019-02-24T12:01:21.463Z,3.57
2019-02-24T12:03:48.728Z,4.20
2019-02-24T12:06:16.375Z,4.67
2019-02-24T12:08:43.631Z,4.07
2019-02-24T12:11:10.880Z,3.23
2019-02-24T12:13:38.443Z,4.20
2019-02-24T12:16:05.663Z,4.17
2019-02-24T12:18:32.925Z,3.70
2019-02-24T12:21:00.610Z,3.67
2019-02-24T12:23:27.859Z,3.97
2019-02-24T12:25:55.176Z,4.20
2019-02-24T12:28:22.883Z,5.30
2019-02-24T12:30:50.661Z,5.10
2019-02-24T12:33:17.903Z,5.73
2019-02-24T12:35:45.757Z,4.93
2019-02-24T12:38:12.972Z,4.00
2019-02-24T12:40:40.232Z,3.60
2019-02-24T12:43:07.456Z,4.33
2019-02-24T12:45:35.068Z,4.10
2019-02-24T12:48:02.384Z,4.63
2019-02-24T12:50:29.657Z,3.57
2019-02-24T12:52:56.962Z,4.33
2019-02-24T12:55:24.225Z,6.77
2019-02-24T12:57:51.745Z,7.83
2019-02-24T13:00:19.607Z,4.13
2019-02-24T13:02:47.169Z,4.80
2019-02-24T13:05:14.751Z,5.20
2019-02-24T13:07:41.893Z,4.50
2019-02-24T13:10:11.836Z,4.60
2019-02-24T13:12:39.052Z,6.17
2019-02-24T13:15:06.351Z,4.33
2019-02-24T13:17:33.941Z,4.60
2019-02-24T13:20:01.187Z,5.37
2019-02-24T13:22:28.407Z,5.53
2019-02-24T13:24:55.653Z,4.87
2019-02-24T13:27:23.161Z,4.87
2019-02-24T13:29:50.721Z,5.17
2019-02-24T13:32:18.053Z,6.30
2019-02-24T13:34:45.337Z,4.73
2019-02-24T13:37:12.884Z,7.10
2019-02-24T13:39:40.143Z,5.13
2019-02-24T13:42:08.008Z,4.60
2019-02-24T13:44:35.559Z,4.67
2019-02-24T13:47:02.792Z,5.90
2019-02-24T13:49:30.376Z,5.20
2019-02-24T13:51:57.587Z,4.97
2019-02-24T13:54:24.848Z,4.80
2019-02-24T13:56:52.076Z,5.10
2019-02-24T13:59:19.309Z,5.70
2019-02-24T14:01:46.536Z,6.53
2019-02-24T14:04:13.988Z,4.40
2019-02-24T14:06:41.548Z,4.10
2019-02-24T14:09:09.511Z,5.20
2019-02-24T14:11:36.759Z,4.97
2019-02-24T14:14:04.324Z,4.37
2019-02-24T14:16:31.882Z,4.57
2019-02-24T14:18:59.104Z,4.57
2019-02-24T14:21:26.696Z,5.77
2019-02-24T14:23:53.912Z,4.43
2019-02-24T14:26:21.170Z,4.93
2019-02-24T14:28:48.396Z,4.30
2019-02-24T14:31:16.015Z,5.43
2019-02-24T14:33:43.277Z,4.17
2019-02-24T14:36:10.591Z,4.43
2019-02-24T14:38:38.182Z,4.70
2019-02-24T14:41:05.430Z,4.30
2019-02-24T14:43:32.983Z,5.57
2019-02-24T14:46:00.236Z,4.10
2019-02-24T14:48:27.793Z,4.53
2019-02-24T14:50:55.048Z,3.83
2019-02-24T14:53:22.604Z,4.27
2019-02-24T14:55:49.861Z,4.23
2019-02-24T14:58:17.079Z,4.37
2019-02-24T15:00:44.327Z,4.00
2019-02-24T15:03:11.640Z,4.43
2019-02-24T15:05:38.907Z,3.97
2019-02-24T15:08:06.523Z,4.17
2019-02-24T15:10:33.775Z,5.47
2019-02-24T15:13:00.999Z,5.77
2019-02-24T15:15:32.982Z,4.23
2019-02-24T15:17:57.785Z,5.03
2019-02-24T15:20:25.008Z,5.57
2019-02-24T15:22:52.267Z,4.57
2019-02-24T15:25:19.495Z,4.20
2019-02-24T15:27:46.753Z,4.33
2019-02-24T15:30:20.257Z,3.43
2019-02-24T15:32:51.670Z,4.43
2019-02-24T15:35:16.831Z,3.70
2019-02-24T15:37:44.096Z,3.83
2019-02-24T15:40:11.323Z,5.17
2019-02-24T15:42:38.590Z,4.77
2019-02-24T15:45:06.183Z,4.87
2019-02-24T15:47:33.408Z,4.17
2019-02-24T15:50:01.173Z,4.63
2019-02-24T15:52:28.394Z,4.27
2019-02-24T15:54:55.879Z,5.43
2019-02-24T15:57:23.445Z,4.13
2019-02-24T15:59:50.670Z,4.90
2019-02-24T16:02:17.791Z,5.10
2019-02-24T16:04:45.295Z,5.40
2019-02-24T16:07:12.856Z,4.50
2019-02-24T16:09:40.096Z,4.33
2019-02-24T16:12:07.668Z,5.40
2019-02-24T16:14:35.328Z,7.63
2019-02-24T16:17:02.883Z,4.80
2019-02-24T16:19:30.151Z,4.63
2019-02-24T16:21:57.563Z,4.27
2019-02-24T16:24:24.803Z,4.57
2019-02-24T16:26:52.033Z,3.93
2019-02-24T16:29:19.664Z,5.63
2019-02-24T16:31:47.244Z,5.67
2019-02-24T16:34:15.839Z,6.43
2019-02-24T16:36:43.483Z,6.03
2019-02-24T16:39:10.840Z,6.20
2019-02-24T16:41:38.076Z,6.23
2019-02-24T16:44:05.736Z,6.77
2019-02-24T16:46:32.975Z,8.50
2019-02-24T16:49:03.353Z,6.33
2019-02-24T16:51:30.983Z,6.10
2019-02-24T16:53:59.178Z,6.23
2019-02-24T16:56:26.435Z,7.80
2019-02-24T16:58:53.998Z,5.47
2019-02-24T17:01:22.362Z,7.73
2019-02-24T17:03:50.238Z,6.77
2019-02-24T17:06:17.661Z,9.07
2019-02-24T17:08:51.910Z,7.10
2019-02-24T17:11:14.920Z,7.17
2019-02-24T17:13:43.428Z,9.20
2019-02-24T17:16:12.335Z,9.90
2019-02-24T17:18:40.284Z,9.57
2019-02-24T17:21:07.506Z,13.43
2019-02-24T17:23:34.872Z,9.83
2019-02-24T17:26:02.099Z,10.70
2019-02-24T17:28:29.676Z,11.33
2019-02-24T17:30:56.901Z,6.73
2019-02-24T17:33:29.922Z,8.47
2019-02-24T17:35:53.268Z,6.00
2019-02-24T17:38:21.244Z,7.30
2019-02-24T17:40:48.803Z,6.77
2019-02-24T17:43:16.040Z,8.10
2019-02-24T17:45:44.873Z,6.57
2019-02-24T17:48:12.600Z,6.10
2019-02-24T17:50:39.839Z,7.87
2019-02-24T17:53:07.437Z,7.97
2019-02-24T17:55:34.671Z,7.33
2019-02-24T17:58:01.904Z,8.77
2019-02-24T18:00:32.244Z,7.47
2019-02-24T18:02:59.475Z,7.27
2019-02-24T18:05:27.055Z,8.77
2019-02-24T18:07:54.296Z,8.63
2019-02-24T18:10:21.869Z,9.20
2019-02-24T18:12:49.103Z,8.87
2019-02-24T18:15:16.675Z,8.57
2019-02-24T18:17:44.239Z,8.83
2019-02-24T18:20:11.560Z,9.30
2019-02-24T18:22:38.796Z,9.70
2019-02-24T18:25:28.128Z,10.63
2019-02-24T18:27:55.768Z,8.87
2019-02-24T18:30:23.063Z,7.73
2019-02-24T18:32:50.294Z,8.50
2019-02-24T18:35:17.939Z,9.77
2019-02-24T18:37:45.164Z,9.77
2019-02-24T18:40:12.548Z,8.03
2019-02-24T18:42:39.776Z,8.67
2019-02-24T18:45:07.690Z,10.77
2019-02-24T18:47:35.053Z,10.93
2019-02-24T18:50:02.366Z,11.37
2019-02-24T18:52:29.680Z,8.63
2019-02-24T18:54:56.936Z,7.03
2019-02-24T18:57:24.172Z,8.77
2019-02-24T18:59:51.444Z,8.83
2019-02-24T19:02:18.660Z,6.97
2019-02-24T19:04:46.183Z,9.20
2019-02-24T19:07:13.439Z,8.20
2019-02-24T19:09:40.755Z,7.03
2019-02-24T19:12:08.247Z,7.80
2019-02-24T19:14:35.868Z,9.57
2019-02-24T19:17:03.376Z,8.27
2019-02-24T19:19:30.924Z,8.97
2019-02-24T19:21:58.287Z,8.10
2019-02-24T19:24:25.539Z,7.67
2019-02-24T19:26:52.763Z,8.43
2019-02-24T19:29:20.236Z,8.00
2019-02-24T19:31:47.452Z,8.30
2019-02-24T19:34:14.674Z,9.53
2019-02-24T19:36:42.199Z,10.07
2019-02-24T19:39:13.006Z,9.67
2019-02-24T19:41:40.492Z,8.70
2019-02-24T19:44:08.051Z,11.27
2019-02-24T19:46:35.268Z,9.40
2019-02-24T19:49:02.759Z,10.13
2019-02-24T19:51:29.972Z,10.50
2019-02-24T19:53:57.465Z,8.37
2019-02-24T19:56:25.023Z,9.03
2019-02-24T19:58:52.585Z,8.00
2019-02-24T20:01:20.148Z,9.03
2019-02-24T20:03:47.817Z,9.80
2019-02-24T20:06:15.180Z,10.07
2019-02-24T20:08:43.022Z,9.47
2019-02-24T20:11:10.241Z,9.63
2019-02-24T20:13:37.464Z,10.83
2019-02-24T20:16:04.773Z,11.77
2019-02-24T20:18:31.926Z,10.90
2019-02-24T20:20:59.142Z,10.60
2019-02-24T20:23:26.352Z,13.67
2019-02-24T20:25:53.892Z,13.80
2019-02-24T20:28:21.107Z,17.37
2019-02-24T20:30:48.807Z,14.57
2019-02-24T20:33:16.880Z,16.37
2019-02-24T20:35:44.433Z,14.97
2019-02-24T20:38:11.991Z,15.43
2019-02-24T20:40:39.292Z,13.77
2019-02-24T20:43:06.508Z,15.73
2019-02-24T20:45:34.063Z,12.63
2019-02-24T20:48:01.273Z,13.90
2019-02-24T20:50:28.748Z,13.83
2019-02-24T20:52:57.249Z,12.73
2019-02-24T20:55:24.552Z,13.87
2019-02-24T20:57:52.078Z,10.53
2019-02-24T21:00:31.076Z,10.10
2019-02-24T21:02:58.295Z,9.73
2019-02-24T21:05:25.592Z,9.67
2019-02-24T21:07:53.274Z,10.20
2019-02-24T21:10:20.523Z,11.07
2019-02-24T21:12:48.048Z,10.27
2019-02-24T21:15:15.329Z,8.50
2019-02-24T21:17:43.174Z,9.63
2019-02-24T21:20:13.280Z,8.33
2019-02-24T21:22:40.535Z,6.90
2019-02-24T21:25:07.796Z,8.27
2019-02-24T21:27:35.249Z,9.87
2019-02-24T21:30:02.513Z,11.03
2019-02-24T21:32:30.065Z,11.60
2019-02-24T21:34:57.648Z,9.23
2019-02-24T21:37:24.869Z,12.17
2019-02-24T21:39:52.104Z,9.93
2019-02-24T21:42:19.339Z,11.47
2019-02-24T21:44:46.942Z,12.50
2019-02-24T21:47:14.183Z,16.43
2019-02-24T21:49:41.751Z,15.63
2019-02-24T21:52:09.313Z,11.83
2019-02-24T21:54:36.869Z,11.87
2019-02-24T21:57:04.116Z,11.40
2019-02-24T21:59:37.008Z,11.60
2019-02-24T22:02:00.771Z,13.20
2019-02-24T22:04:27.988Z,13.10
2019-02-24T22:06:55.212Z,12.33
2019-02-24T22:09:22.731Z,11.27
2019-02-24T22:11:50.022Z,9.53
2019-02-24T22:14:17.345Z,10.93
2019-02-24T22:16:44.900Z,11.57
2019-02-24T22:19:12.241Z,11.83
2019-02-24T22:21:39.521Z,12.17
2019-02-24T22:24:07.073Z,9.50
2019-02-24T22:26:34.283Z,8.43
2019-02-24T22:29:01.875Z,9.13
2019-02-24T22:31:29.437Z,11.17
2019-02-24T22:33:56.761Z,8.40
2019-02-24T22:36:24.091Z,8.20
2019-02-24T22:38:51.372Z,8.50
2019-02-24T22:41:18.807Z,8.53
2019-02-24T22:43:49.076Z,7.87
2019-02-24T22:46:16.351Z,7.57
2019-02-24T22:48:44.312Z,6.80
2019-02-24T22:51:13.395Z,6.73
2019-02-24T22:53:40.989Z,7.93
2019-02-24T22:56:08.311Z,7.87
2019-02-24T22:58:35.535Z,7.63
2019-02-24T23:01:13.808Z,9.13
2019-02-24T23:03:47.619Z,10.20
2019-02-24T23:06:15.127Z,10.60
2019-02-24T23:08:42.339Z,7.20
2019-02-24T23:11:29.323Z,8.10
2019-02-24T23:13:56.556Z,8.87
2019-02-24T23:16:24.100Z,8.33
2019-02-24T23:18:51.659Z,9.27
2019-02-24T23:21:19.220Z,7.97
2019-02-24T23:23:46.433Z,8.20
2019-02-24T23:26:13.663Z,7.23
2019-02-24T23:28:40.880Z,8.03
2019-02-24T23:31:08.427Z,8.30
2019-02-24T23:33:35.652Z,9.10
2019-02-24T23:36:02.976Z,8.00
2019-02-24T23:38:30.191Z,9.00
2019-02-24T23:40:57.749Z,8.77
2019-02-24T23:43:25.058Z,9.07
2019-02-24T23:45:52.557Z,9.67
2019-02-24T23:48:20.117Z,7.13
2019-02-24T23:50:47.364Z,7.23
2019-02-24T23:53:14.924Z,8.33
2019-02-24T23:55:42.155Z,8.23
2019-02-24T23:58:09.737Z,8.10
